Time;durP1;ratioP1;P1;durP2;ratioP2;P2;SDS_P1;SDS_P2;PMS_P1;PMS_P2;Temp;Humidity;BMP_temperature;BMP_pressure;BME280_temperature;BME280_humidity;BME280_pressure;Samples;Min_cycle;Max_cycle;Signal;HPM_P1;HPM_P2
2021/03/06 00:04:52;;;;;;;1.95;0.90;;;17.60;56.90;;;;;;10592006;27;20066;-55
2021/03/06 00:09:52;;;;;;;1.98;1.13;;;17.60;56.90;;;;;;10606960;27;20116;-55
2021/03/06 00:14:53;;;;;;;1.80;0.98;;;17.60;56.80;;;;;;10572103;27;20034;-55
2021/03/06 00:19:54;;;;;;;4.60;0.90;;;17.60;56.80;;;;;;10571450;27;20107;-55
2021/03/06 00:24:56;;;;;;;1.35;0.95;;;17.60;56.70;;;;;;10598410;27;20027;-55
2021/03/06 00:29:57;;;;;;;1.40;1.00;;;17.60;56.70;;;;;;10595255;27;20043;-55
2021/03/06 00:34:57;;;;;;;1.52;0.80;;;17.60;56.70;;;;;;10606374;27;20106;-55
2021/03/06 00:39:58;;;;;;;1.80;1.02;;;17.60;56.60;;;;;;10599317;27;20069;-55
2021/03/06 00:44:59;;;;;;;1.85;0.90;;;17.60;56.70;;;;;;10592295;27;20092;-55
2021/03/06 00:50:00;;;;;;;1.63;0.70;;;17.60;56.50;;;;;;10610121;27;20035;-55
2021/03/06 00:55:01;;;;;;;1.77;0.80;;;17.60;56.50;;;;;;10605773;27;20473;-55
2021/03/06 01:00:04;;;;;;;2.28;0.80;;;17.60;56.40;;;;;;10572752;28;20027;-55
2021/03/06 01:05:06;;;;;;;1.73;0.88;;;17.60;56.30;;;;;;10601493;28;20091;-55
2021/03/06 01:10:25;;;;;;;1.15;0.70;;;17.60;56.20;;;;;;10604355;28;20034;-55
2021/03/06 01:15:26;;;;;;;1.35;0.88;;;17.60;56.10;;;;;;10588549;28;20365;-55
2021/03/06 01:20:27;;;;;;;2.42;0.95;;;17.60;56.10;;;;;;10607084;28;20027;-55
2021/03/06 01:25:29;;;;;;;1.50;0.70;;;17.60;56.00;;;;;;10604093;28;20027;-55
2021/03/06 01:30:29;;;;;;;2.13;0.90;;;17.70;56.00;;;;;;10570246;27;20047;-56
2021/03/06 01:35:30;;;;;;;1.65;0.77;;;17.70;55.80;;;;;;10621967;27;20066;-54
2021/03/06 01:40:34;;;;;;;1.75;0.80;;;17.70;55.80;;;;;;10593698;27;20042;-55
2021/03/06 01:45:35;;;;;;;3.78;1.05;;;17.70;55.80;;;;;;10606894;27;20038;-55
2021/03/06 01:50:40;;;;;;;1.58;0.90;;;17.70;55.80;;;;;;10606584;27;20027;-56
2021/03/06 01:55:46;;;;;;;1.98;0.73;;;17.70;55.80;;;;;;10605128;27;20034;-54
2021/03/06 02:00:47;;;;;;;1.58;0.75;;;17.70;55.70;;;;;;10599764;27;20061;-55
2021/03/06 02:05:48;;;;;;;1.38;0.70;;;17.70;55.60;;;;;;10579187;27;20081;-54
2021/03/06 02:10:49;;;;;;;1.25;0.52;;;17.70;55.60;;;;;;10601228;27;20427;-56
2021/03/06 02:16:34;;;;;;;1.88;0.80;;;17.70;55.50;;;;;;10594317;27;20054;-55
2021/03/06 02:21:59;;;;;;;1.42;0.80;;;17.70;55.50;;;;;;10598835;27;20069;-55
2021/03/06 02:27:45;;;;;;;1.52;0.73;;;17.70;56.10;;;;;;10610794;27;20039;-55
2021/03/06 02:32:50;;;;;;;1.15;0.60;;;17.70;55.30;;;;;;10609839;27;20499;-55
2021/03/06 02:38:06;;;;;;;2.05;0.70;;;17.80;55.30;;;;;;10582489;27;20031;-55
2021/03/06 02:43:09;;;;;;;1.45;0.75;;;17.70;55.10;;;;;;10588078;27;20019;-55
2021/03/06 02:48:10;;;;;;;1.10;0.80;;;17.80;55.20;;;;;;10606943;27;20034;-55
2021/03/06 02:53:11;;;;;;;1.60;0.70;;;17.80;55.10;;;;;;10618695;27;20035;-55
2021/03/06 02:58:39;;;;;;;1.73;0.65;;;17.80;55.10;;;;;;10600339;27;20031;-55
2021/03/06 03:04:13;;;;;;;1.63;0.65;;;17.80;54.90;;;;;;10597802;27;20054;-55
2021/03/06 03:09:25;;;;;;;3.17;0.88;;;17.80;55.00;;;;;;10601757;27;20051;-55
2021/03/06 03:14:57;;;;;;;1.02;0.63;;;17.70;54.90;;;;;;10584143;28;20036;-55
2021/03/06 03:20:37;;;;;;;1.38;0.70;;;17.70;54.80;;;;;;10585301;27;20098;-55
2021/03/06 03:25:40;;;;;;;1.75;0.68;;;17.70;54.90;;;;;;10600726;27;20020;-55
2021/03/06 03:30:41;;;;;;;2.15;0.80;;;17.70;54.90;;;;;;10575438;27;20385;-55
2021/03/06 03:35:44;;;;;;;1.23;0.50;;;17.70;54.80;;;;;;10574808;27;20131;-55
2021/03/06 03:40:46;;;;;;;1.48;0.70;;;17.80;54.80;;;;;;10607019;27;20133;-56
2021/03/06 03:45:46;;;;;;;1.58;0.63;;;17.80;54.70;;;;;;10624541;27;20034;-55
2021/03/06 03:50:48;;;;;;;1.75;0.60;;;17.80;54.60;;;;;;10609352;27;20046;-55
2021/03/06 03:55:50;;;;;;;1.17;0.80;;;17.80;54.60;;;;;;10581845;27;20042;-55
2021/03/06 04:01:01;;;;;;;1.38;0.90;;;17.70;54.50;;;;;;10611940;27;20064;-55
2021/03/06 04:06:02;;;;;;;3.85;0.90;;;17.70;54.50;;;;;;10582894;27;20023;-55
2021/03/06 04:11:03;;;;;;;1.45;0.80;;;17.70;54.50;;;;;;10596192;27;20035;-54
2021/03/06 04:16:04;;;;;;;1.33;0.75;;;17.80;54.50;;;;;;10623135;27;20062;-55
2021/03/06 04:21:05;;;;;;;1.23;0.70;;;17.80;55.00;;;;;;10615605;27;20391;-55
2021/03/06 04:26:06;;;;;;;2.38;0.88;;;17.80;54.30;;;;;;10622926;27;20102;-55
2021/03/06 04:31:06;;;;;;;0.80;0.47;;;17.80;54.30;;;;;;10590235;27;20095;-55
2021/03/06 04:36:07;;;;;;;2.63;0.90;;;17.80;54.20;;;;;;10603558;27;20070;-55
2021/03/06 04:41:08;;;;;;;1.85;0.80;;;17.80;54.20;;;;;;10583977;27;20038;-55
2021/03/06 04:46:08;;;;;;;0.98;0.60;;;17.80;54.20;;;;;;10611802;27;20063;-54
2021/03/06 04:51:09;;;;;;;0.88;0.60;;;17.80;54.20;;;;;;10581610;28;20070;-55
2021/03/06 04:56:10;;;;;;;1.85;0.77;;;17.80;54.10;;;;;;10613226;27;20211;-55
2021/03/06 05:01:10;;;;;;;2.10;0.80;;;17.80;54.10;;;;;;10604933;27;20043;-55
2021/03/06 05:06:11;;;;;;;1.98;0.75;;;17.80;54.00;;;;;;10613390;27;20479;-55
2021/03/06 05:11:12;;;;;;;1.98;0.68;;;17.80;53.80;;;;;;10598607;28;20521;-54
2021/03/06 05:16:13;;;;;;;2.22;0.93;;;17.80;53.80;;;;;;10589324;28;20032;-55
2021/03/06 05:21:14;;;;;;;1.23;0.60;;;17.80;53.80;;;;;;10561740;28;20016;-55
2021/03/06 05:26:14;;;;;;;1.83;0.70;;;17.80;53.80;;;;;;10605029;28;20041;-55
2021/03/06 05:31:15;;;;;;;1.40;0.70;;;17.80;53.70;;;;;;10584233;28;20036;-55
2021/03/06 05:36:16;;;;;;;0.93;0.60;;;17.80;53.70;;;;;;10588741;28;20170;-55
2021/03/06 05:41:20;;;;;;;1.42;0.52;;;17.80;53.70;;;;;;10592432;28;20039;-55
2021/03/06 05:46:21;;;;;;;1.75;0.93;;;17.80;53.70;;;;;;10592023;28;20107;-55
2021/03/06 05:51:23;;;;;;;2.20;0.80;;;17.80;53.70;;;;;;10573251;28;20421;-55
2021/03/06 05:56:24;;;;;;;2.80;1.00;;;17.80;53.60;;;;;;10590839;28;20067;-55
2021/03/06 06:01:25;;;;;;;1.50;1.10;;;17.80;53.60;;;;;;10577535;28;20040;-55
2021/03/06 06:06:28;;;;;;;1.05;0.65;;;17.80;53.60;;;;;;10584039;28;20032;-55
2021/03/06 06:11:29;;;;;;;1.65;0.77;;;17.80;53.60;;;;;;10588105;28;20027;-56
2021/03/06 06:16:34;;;;;;;1.45;0.70;;;17.80;53.60;;;;;;10619207;27;20031;-55
2021/03/06 06:21:49;;;;;;;1.35;0.88;;;17.80;53.60;;;;;;10569649;27;20508;-55
2021/03/06 06:26:57;;;;;;;2.67;1.00;;;17.80;53.60;;;;;;10598974;27;20031;-55
2021/03/06 06:31:58;;;;;;;1.58;0.73;;;17.80;53.60;;;;;;10598466;27;20042;-55
2021/03/06 06:37:06;;;;;;;1.77;0.70;;;17.80;53.70;;;;;;10608964;27;20078;-54
2021/03/06 06:42:07;;;;;;;1.45;1.02;;;17.80;53.70;;;;;;10588211;27;20122;-56
2021/03/06 06:47:16;;;;;;;3.13;1.05;;;17.80;53.70;;;;;;10597917;27;20606;-51
2021/03/06 06:52:20;;;;;;;7.32;1.83;;;17.80;54.40;;;;;;10613964;27;20027;-54
2021/03/06 06:57:22;;;;;;;9.50;1.40;;;17.80;56.00;;;;;;10599495;27;20036;-53
2021/03/06 07:02:24;;;;;;;2.85;1.35;;;17.90;56.10;;;;;;10591554;27;20127;-55
2021/03/06 07:07:37;;;;;;;3.03;0.98;;;17.90;56.90;;;;;;10622941;27;20035;-55
2021/03/06 07:12:41;;;;;;;5.32;1.33;;;17.80;57.90;;;;;;10595859;27;20027;-54
2021/03/06 07:17:44;;;;;;;4.03;1.15;;;17.90;57.90;;;;;;10600998;27;20063;-55
2021/03/06 07:22:46;;;;;;;3.47;1.02;;;17.80;57.90;;;;;;10604751;27;20023;-55
2021/03/06 07:27:47;;;;;;;6.82;1.15;;;17.80;57.90;;;;;;10614832;27;20039;-55
2021/03/06 07:32:48;;;;;;;10.65;1.40;;;17.80;58.10;;;;;;10584776;27;20564;-55
2021/03/06 07:37:56;;;;;;;6.53;1.50;;;17.80;57.60;;;;;;10589718;27;20027;-55
2021/03/06 07:43:11;;;;;;;8.80;1.23;;;17.70;57.30;;;;;;10623188;27;20045;-55
2021/03/06 07:48:14;;;;;;;6.05;1.35;;;17.70;57.30;;;;;;10590563;27;20039;-55
2021/03/06 07:53:16;;;;;;;7.40;1.60;;;17.70;57.40;;;;;;10582830;28;20024;-55
2021/03/06 07:58:19;;;;;;;7.60;1.58;;;17.60;57.60;;;;;;10583126;27;20032;-55
2021/03/06 08:03:22;;;;;;;9.52;1.83;;;17.60;57.90;;;;;;10597543;27;20024;-55
2021/03/06 08:08:32;;;;;;;4.47;1.40;;;17.60;58.10;;;;;;10600162;27;20035;-57
2021/03/06 08:13:38;;;;;;;6.97;1.70;;;17.60;58.10;;;;;;10600141;27;20106;-55
2021/03/06 08:18:39;;;;;;;17.30;2.20;;;17.50;58.20;;;;;;10573684;27;20027;-59
2021/03/06 08:23:39;;;;;;;15.60;2.20;;;17.50;58.50;;;;;;10575133;27;20027;-60
2021/03/06 08:28:40;;;;;;;15.55;2.25;;;17.50;58.50;;;;;;10597101;27;20050;-57
2021/03/06 08:33:41;;;;;;;12.35;2.05;;;17.50;58.60;;;;;;10593607;27;20114;-57
2021/03/06 08:38:42;;;;;;;19.23;2.22;;;17.40;58.70;;;;;;10596296;27;20020;-56
2021/03/06 08:43:44;;;;;;;9.50;2.20;;;17.40;59.10;;;;;;10576581;27;20023;-55
2021/03/06 08:48:46;;;;;;;11.48;2.25;;;17.40;59.00;;;;;;10583129;27;20023;-55
2021/03/06 08:53:57;;;;;;;12.93;2.72;;;17.40;58.70;;;;;;10578483;27;20030;-56
2021/03/06 08:58:58;;;;;;;10.55;2.20;;;17.40;59.20;;;;;;10585905;27;20027;-56
2021/03/06 09:03:59;;;;;;;20.30;2.47;;;17.40;59.60;;;;;;10588474;27;20040;-55
2021/03/06 09:08:59;;;;;;;13.93;1.95;;;17.30;59.60;;;;;;10593603;28;20069;-55
2021/03/06 09:14:00;;;;;;;13.50;2.40;;;17.30;60.10;;;;;;10620349;28;20042;-56
2021/03/06 09:19:01;;;;;;;5.38;1.70;;;17.20;60.10;;;;;;10601670;28;20028;-54
2021/03/06 09:24:02;;;;;;;8.73;1.92;;;17.20;59.80;;;;;;10604578;28;20023;-57
2021/03/06 09:29:03;;;;;;;23.33;3.80;;;17.20;60.40;;;;;;10600053;28;20027;-56
2021/03/06 09:34:04;;;;;;;17.50;1.80;;;17.20;60.10;;;;;;10600720;28;20039;-54
2021/03/06 09:39:06;;;;;;;14.88;1.90;;;17.10;60.20;;;;;;10596845;28;20023;-55
2021/03/06 09:44:09;;;;;;;18.45;2.28;;;17.10;60.00;;;;;;10589323;28;20102;-55
2021/03/06 09:49:14;;;;;;;24.58;4.22;;;17.10;60.00;;;;;;10572695;28;20047;-55
2021/03/06 09:54:16;;;;;;;13.27;2.65;;;17.10;59.90;;;;;;10604581;27;20034;-56
2021/03/06 09:59:18;;;;;;;8.00;2.00;;;17.10;59.10;;;;;;10595472;27;20051;-53
2021/03/06 10:04:23;;;;;;;17.08;2.58;;;17.10;58.40;;;;;;10598175;27;20027;-56
2021/03/06 10:09:31;;;;;;;19.00;2.17;;;17.00;58.30;;;;;;10591905;27;20106;-55
2021/03/06 10:14:33;;;;;;;10.20;2.03;;;16.90;58.30;;;;;;10596197;27;20095;-55
2021/03/06 10:19:49;;;;;;;8.35;1.58;;;17.00;58.40;;;;;;10602704;27;20114;-56
2021/03/06 10:25:03;;;;;;;7.05;2.17;;;16.90;58.40;;;;;;10592202;27;20403;-56
2021/03/06 10:30:23;;;;;;;6.35;1.40;;;16.90;58.50;;;;;;10614317;27;20042;-55
2021/03/06 10:35:56;;;;;;;9.27;1.50;;;17.00;58.20;;;;;;10608445;27;20042;-55
2021/03/06 10:41:01;;;;;;;5.63;1.40;;;17.00;58.00;;;;;;10566902;27;20551;-56
2021/03/06 10:46:25;;;;;;;5.55;1.35;;;17.10;57.80;;;;;;10580608;27;20086;-56
2021/03/06 10:51:52;;;;;;;7.78;1.77;;;17.10;57.50;;;;;;10606895;27;20054;-55
2021/03/06 10:57:04;;;;;;;8.55;1.50;;;17.20;57.50;;;;;;10601582;27;20089;-55
2021/03/06 11:02:06;;;;;;;11.73;1.65;;;17.20;57.50;;;;;;10576637;27;20055;-56
2021/03/06 11:07:08;;;;;;;8.75;1.90;;;17.20;57.70;;;;;;10605562;27;20539;-55
2021/03/06 11:12:27;;;;;;;26.70;3.33;;;17.30;58.20;;;;;;10603550;27;20035;-56
2021/03/06 11:17:28;;;;;;;8.00;2.10;;;17.30;58.40;;;;;;10612370;27;20109;-56
2021/03/06 11:22:29;;;;;;;13.57;2.85;;;17.40;58.80;;;;;;10625563;27;20034;-57
2021/03/06 11:27:47;;;;;;;8.98;2.35;;;17.40;59.10;;;;;;10620062;27;20383;-56
2021/03/06 11:32:49;;;;;;;11.55;2.22;;;17.40;59.80;;;;;;10598449;27;20399;-56
2021/03/06 11:37:51;;;;;;;8.50;2.20;;;17.40;59.40;;;;;;10590101;27;20044;-56
2021/03/06 11:42:53;;;;;;;15.13;2.40;;;17.50;59.70;;;;;;10584819;27;20396;-56
2021/03/06 11:47:55;;;;;;;13.15;2.13;;;17.60;59.70;;;;;;10591393;27;20421;-57
2021/03/06 11:52:57;;;;;;;15.93;2.75;;;17.70;56.20;;;;;;10598066;27;20035;-56
2021/03/06 11:57:58;;;;;;;9.68;1.88;;;17.60;57.80;;;;;;10593160;27;20030;-56
2021/03/06 12:02:59;;;;;;;13.15;1.88;;;17.60;58.00;;;;;;10595574;27;20034;-56
2021/03/06 12:08:00;;;;;;;15.35;2.40;;;17.60;58.00;;;;;;10583294;27;20027;-56
2021/03/06 12:13:01;;;;;;;13.50;2.38;;;17.60;57.80;;;;;;10584259;27;20024;-56
2021/03/06 12:18:02;;;;;;;12.25;2.90;;;17.60;57.60;;;;;;10619447;27;20027;-57
2021/03/06 12:23:02;;;;;;;11.85;3.03;;;17.50;57.50;;;;;;10583640;27;20156;-57
2021/03/06 12:28:04;;;;;;;11.05;1.88;;;17.50;57.00;;;;;;10593258;27;20454;-58
2021/03/06 12:33:04;;;;;;;9.10;2.00;;;17.50;56.50;;;;;;10585240;27;20185;-56
2021/03/06 12:38:05;;;;;;;10.00;2.25;;;17.50;55.70;;;;;;10591004;27;20035;-56
2021/03/06 12:43:07;;;;;;;6.28;1.40;;;17.50;55.80;;;;;;10590459;27;20110;-56
2021/03/06 12:48:08;;;;;;;11.40;2.88;;;17.50;56.00;;;;;;10591036;27;20031;-56
2021/03/06 12:53:09;;;;;;;6.35;1.73;;;17.50;56.20;;;;;;10586592;27;20079;-56
2021/03/06 12:58:10;;;;;;;8.82;1.88;;;17.40;56.40;;;;;;10599300;27;20068;-56
2021/03/06 13:03:10;;;;;;;6.55;1.35;;;17.40;56.60;;;;;;10600547;27;20099;-57
2021/03/06 13:08:11;;;;;;;7.22;2.45;;;17.30;56.80;;;;;;10599944;28;20052;-57
2021/03/06 13:13:13;;;;;;;5.18;1.20;;;17.30;57.00;;;;;;10600093;28;20125;-56
2021/03/06 13:18:15;;;;;;;3.35;1.30;;;17.20;57.10;;;;;;10563338;28;20058;-56
2021/03/06 13:23:16;;;;;;;4.28;1.40;;;17.20;57.20;;;;;;10611574;28;20380;-56
2021/03/06 13:28:17;;;;;;;5.63;1.23;;;17.10;57.30;;;;;;10613653;27;20111;-55
2021/03/06 13:33:18;;;;;;;8.02;1.65;;;17.10;57.40;;;;;;10603585;27;20078;-56
2021/03/06 13:38:19;;;;;;;4.40;1.40;;;17.00;57.50;;;;;;10606134;27;20149;-56
2021/03/06 13:43:20;;;;;;;3.33;1.05;;;17.00;57.70;;;;;;10628441;27;20026;-55
2021/03/06 13:48:20;;;;;;;5.10;1.20;;;16.90;57.70;;;;;;10599040;27;20035;-56
2021/03/06 13:53:22;;;;;;;4.40;1.08;;;16.90;57.80;;;;;;10578369;28;20531;-56
2021/03/06 13:58:22;;;;;;;3.55;1.17;;;16.90;58.00;;;;;;10595478;27;20483;-55
2021/03/06 14:03:23;;;;;;;2.33;0.80;;;16.90;58.00;;;;;;10612761;27;20114;-56
2021/03/06 14:08:24;;;;;;;3.40;1.70;;;16.80;58.00;;;;;;10610786;27;20066;-57
2021/03/06 14:13:24;;;;;;;4.85;0.90;;;16.90;58.00;;;;;;10603489;27;20420;-57
2021/03/06 14:18:25;;;;;;;2.83;1.00;;;16.90;57.90;;;;;;10612421;27;20126;-57
2021/03/06 14:23:26;;;;;;;3.55;0.95;;;17.00;57.80;;;;;;10582894;27;20163;-57
2021/03/06 14:28:27;;;;;;;3.20;0.65;;;17.00;57.60;;;;;;10612216;27;20036;-57
2021/03/06 14:33:28;;;;;;;4.07;1.15;;;17.00;57.60;;;;;;10596102;27;20047;-57
2021/03/06 14:38:28;;;;;;;1.88;0.63;;;17.00;57.50;;;;;;10610163;27;20039;-57
2021/03/06 14:43:33;;;;;;;2.40;0.82;;;17.10;57.40;;;;;;10584373;27;20433;-57
2021/03/06 14:48:33;;;;;;;2.10;0.70;;;17.10;57.50;;;;;;10591758;27;20028;-57
2021/03/06 14:53:34;;;;;;;1.75;0.98;;;17.10;57.30;;;;;;10609826;27;20114;-56
2021/03/06 14:58:35;;;;;;;2.85;0.80;;;17.10;57.70;;;;;;10622821;27;20451;-57
2021/03/06 15:03:36;;;;;;;2.65;0.60;;;17.10;57.50;;;;;;10577127;27;20027;-57
2021/03/06 15:08:37;;;;;;;4.95;1.85;;;17.10;57.50;;;;;;10592903;27;20114;-56
2021/03/06 15:13:37;;;;;;;1.52;0.73;;;17.10;57.40;;;;;;10571621;27;20031;-57
2021/03/06 15:18:39;;;;;;;2.38;0.60;;;17.10;57.10;;;;;;10590100;27;20106;-57
2021/03/06 15:23:39;;;;;;;3.00;0.77;;;17.10;56.60;;;;;;10598598;27;20031;-57
2021/03/06 15:28:40;;;;;;;3.47;1.30;;;17.10;56.40;;;;;;10598418;27;20102;-57
2021/03/06 15:33:41;;;;;;;2.72;0.65;;;17.10;56.20;;;;;;10595145;27;20518;-57
2021/03/06 15:38:42;;;;;;;5.13;1.15;;;17.20;56.60;;;;;;10598071;27;20411;-58
2021/03/06 15:43:43;;;;;;;7.93;1.17;;;17.10;55.50;;;;;;10585899;27;20038;-56
2021/03/06 15:48:44;;;;;;;5.90;1.00;;;17.20;56.20;;;;;;10584977;27;20115;-56
2021/03/06 15:53:44;;;;;;;8.70;1.45;;;17.20;56.30;;;;;;10596104;27;20070;-57
2021/03/06 15:58:46;;;;;;;9.93;1.80;;;17.20;56.20;;;;;;10601635;27;20035;-56
2021/03/06 16:03:47;;;;;;;13.57;2.00;;;17.30;56.20;;;;;;10601951;27;20440;-57
2021/03/06 16:08:48;;;;;;;14.27;2.35;;;17.40;57.70;;;;;;10596157;27;20028;-57
2021/03/06 16:13:54;;;;;;;19.38;2.80;;;17.50;58.10;;;;;;10551293;27;20364;-56
2021/03/06 16:18:55;;;;;;;13.55;2.15;;;17.50;58.10;;;;;;10489475;28;20553;-56
2021/03/06 16:23:56;;;;;;;15.32;2.05;;;17.50;58.60;;;;;;10510073;28;20548;-56
2021/03/06 16:28:57;;;;;;;9.75;2.65;;;17.50;58.90;;;;;;10504700;28;20025;-55
2021/03/06 16:33:58;;;;;;;13.85;2.42;;;17.50;58.30;;;;;;10498179;28;20032;-56
2021/03/06 16:38:59;;;;;;;25.05;7.32;;;17.60;58.30;;;;;;10486341;28;20786;-55
2021/03/06 16:44:06;;;;;;;25.50;5.40;;;17.60;56.80;;;;;;10499563;28;20036;-57
2021/03/06 16:49:07;;;;;;;19.33;3.72;;;17.50;56.20;;;;;;10495824;28;20040;-57
2021/03/06 16:54:08;;;;;;;13.02;3.70;;;17.50;56.40;;;;;;10513153;28;20512;-55
2021/03/06 16:59:09;;;;;;;16.52;3.20;;;17.60;57.20;;;;;;10506930;28;20036;-55
2021/03/06 17:04:09;;;;;;;8.18;3.10;;;17.60;57.60;;;;;;10498433;28;20481;-55
2021/03/06 17:09:10;;;;;;;11.98;2.75;;;17.50;56.60;;;;;;10505516;28;20021;-56
2021/03/06 17:14:11;;;;;;;8.73;3.03;;;17.50;56.70;;;;;;10498805;28;20050;-57
2021/03/06 17:19:12;;;;;;;7.93;2.28;;;17.50;56.00;;;;;;10499645;28;20033;-58
2021/03/06 17:24:14;;;;;;;8.13;2.70;;;17.50;55.70;;;;;;10480481;28;20036;-57
2021/03/06 17:29:16;;;;;;;6.35;1.98;;;17.50;55.80;;;;;;10475485;28;20032;-56
2021/03/06 17:34:16;;;;;;;8.50;3.80;;;17.40;55.90;;;;;;10474755;28;20039;-56
2021/03/06 17:39:17;;;;;;;5.32;1.95;;;17.40;56.00;;;;;;10481480;28;20019;-56
2021/03/06 17:44:18;;;;;;;7.07;1.73;;;17.50;55.60;;;;;;10474321;28;20089;-56
2021/03/06 17:49:19;;;;;;;5.72;2.08;;;17.50;55.60;;;;;;10489868;28;20032;-56
2021/03/06 17:54:19;;;;;;;7.88;1.80;;;17.50;55.60;;;;;;10462713;28;20036;-56
2021/03/06 17:59:20;;;;;;;5.03;1.58;;;17.50;55.70;;;;;;10464423;28;20359;-57
2021/03/06 18:04:21;;;;;;;3.60;1.83;;;17.50;55.60;;;;;;10464141;28;20033;-56
2021/03/06 18:09:23;;;;;;;5.68;2.08;;;17.50;55.60;;;;;;10453043;28;20523;-56
2021/03/06 18:14:26;;;;;;;5.32;1.83;;;17.50;56.20;;;;;;10479157;28;20455;-56
2021/03/06 18:19:27;;;;;;;7.50;1.90;;;17.60;56.60;;;;;;10479795;28;20376;-56
2021/03/06 18:24:28;;;;;;;3.92;1.95;;;17.60;56.90;;;;;;10460520;28;20043;-56
2021/03/06 18:29:28;;;;;;;7.18;1.88;;;17.60;57.40;;;;;;10465591;28;20036;-55
2021/03/06 18:34:30;;;;;;;6.68;2.92;;;17.60;57.60;;;;;;10450985;28;20168;-56
2021/03/06 18:39:31;;;;;;;4.55;1.40;;;17.60;57.40;;;;;;10460034;28;20393;-56
2021/03/06 18:44:31;;;;;;;12.15;1.67;;;17.60;57.20;;;;;;10457890;28;20033;-54
2021/03/06 18:49:32;;;;;;;4.03;1.50;;;17.60;57.20;;;;;;10454963;28;20048;-54
2021/03/06 18:54:33;;;;;;;4.68;1.48;;;17.60;57.20;;;;;;10456963;28;20033;-55
2021/03/06 18:59:34;;;;;;;5.28;1.73;;;17.60;57.20;;;;;;10456840;28;20111;-54
2021/03/06 19:04:34;;;;;;;5.38;1.65;;;17.60;57.20;;;;;;10453958;28;20133;-54
2021/03/06 19:09:35;;;;;;;5.45;1.58;;;17.50;57.30;;;;;;10460448;28;20068;-54
2021/03/06 19:14:36;;;;;;;5.53;2.05;;;17.50;57.30;;;;;;10450091;28;20025;-55
2021/03/06 19:19:36;;;;;;;3.78;1.80;;;17.50;57.20;;;;;;10451941;28;20060;-54
2021/03/06 19:24:37;;;;;;;4.70;1.77;;;17.50;57.20;;;;;;10461117;28;20107;-57
2021/03/06 19:29:38;;;;;;;5.22;1.50;;;17.60;57.20;;;;;;10449873;28;20103;-55
2021/03/06 19:34:39;;;;;;;3.67;1.20;;;17.50;57.20;;;;;;10460460;28;20448;-55
2021/03/06 19:39:40;;;;;;;3.55;1.38;;;17.50;57.20;;;;;;10477955;28;20369;-56
2021/03/06 19:44:41;;;;;;;3.95;1.05;;;17.50;57.20;;;;;;10467294;28;20024;-55
2021/03/06 19:49:42;;;;;;;4.68;1.90;;;17.50;57.20;;;;;;10473425;28;20388;-55
2021/03/06 19:54:43;;;;;;;4.15;1.35;;;17.50;57.20;;;;;;10475228;28;20040;-55
2021/03/06 19:59:43;;;;;;;3.03;1.10;;;17.60;57.20;;;;;;10469809;28;20436;-55
2021/03/06 20:04:44;;;;;;;4.47;1.38;;;17.60;57.20;;;;;;10476331;28;20072;-56
2021/03/06 20:09:45;;;;;;;2.92;1.00;;;17.60;57.10;;;;;;10472412;28;20132;-55
2021/03/06 20:14:45;;;;;;;6.30;1.50;;;17.50;57.10;;;;;;10447359;28;20115;-54
2021/03/06 20:19:46;;;;;;;4.97;1.10;;;17.50;57.20;;;;;;10455333;28;20083;-55
2021/03/06 20:24:47;;;;;;;3.40;1.33;;;17.60;57.20;;;;;;10455635;28;20104;-55
2021/03/06 20:29:48;;;;;;;3.13;1.30;;;17.50;57.10;;;;;;10460225;28;20025;-55
2021/03/06 20:34:49;;;;;;;2.05;1.10;;;17.50;57.00;;;;;;10454936;28;20529;-55
2021/03/06 20:39:52;;;;;;;4.05;1.10;;;17.50;56.90;;;;;;10479469;28;20116;-54
2021/03/06 20:44:53;;;;;;;3.28;1.45;;;17.50;56.80;;;;;;10452935;28;20361;-55
2021/03/06 20:49:54;;;;;;;3.53;1.17;;;17.50;56.80;;;;;;10465766;28;20064;-55
2021/03/06 20:54:55;;;;;;;2.78;1.15;;;17.50;56.60;;;;;;10455910;28;20495;-55
2021/03/06 20:59:56;;;;;;;2.38;0.90;;;17.50;56.60;;;;;;10460668;28;20037;-53
2021/03/06 21:04:56;;;;;;;8.70;1.15;;;17.50;56.50;;;;;;10471012;28;20118;-56
2021/03/06 21:09:57;;;;;;;3.17;0.80;;;17.50;56.50;;;;;;10501390;28;20123;-55
2021/03/06 21:14:58;;;;;;;3.72;0.88;;;17.50;56.50;;;;;;10492370;28;20115;-54
2021/03/06 21:20:00;;;;;;;3.60;0.77;;;17.50;56.50;;;;;;10460368;28;20055;-55
2021/03/06 21:25:01;;;;;;;1.88;0.85;;;17.50;56.40;;;;;;10500327;28;20032;-55
2021/03/06 21:30:04;;;;;;;1.48;0.90;;;17.50;56.40;;;;;;10486140;28;20032;-55
2021/03/06 21:35:06;;;;;;;3.88;1.10;;;17.50;56.20;;;;;;10463296;28;20024;-55
2021/03/06 21:40:08;;;;;;;1.77;1.08;;;17.50;56.20;;;;;;10460586;28;20033;-55
2021/03/06 21:45:11;;;;;;;1.98;0.80;;;17.50;56.10;;;;;;10461842;28;20078;-55
2021/03/06 21:50:12;;;;;;;1.45;0.85;;;17.50;55.90;;;;;;10465320;28;20036;-55
2021/03/06 21:55:13;;;;;;;1.83;0.95;;;17.50;55.90;;;;;;10490674;28;20055;-55
2021/03/06 22:00:14;;;;;;;1.13;0.70;;;17.60;55.80;;;;;;10499947;28;20464;-55
2021/03/06 22:05:15;;;;;;;1.92;1.00;;;17.60;55.70;;;;;;10477468;28;20059;-55
2021/03/06 22:10:15;;;;;;;1.73;1.00;;;17.60;55.60;;;;;;10458186;28;20106;-55
2021/03/06 22:15:16;;;;;;;2.55;1.20;;;17.60;55.50;;;;;;10463911;28;20036;-54
2021/03/06 22:20:17;;;;;;;2.78;1.00;;;17.60;55.40;;;;;;10472213;28;20072;-54
2021/03/06 22:25:18;;;;;;;1.95;1.10;;;17.60;55.40;;;;;;10477305;28;20041;-55
2021/03/06 22:30:20;;;;;;;1.85;0.88;;;17.60;55.30;;;;;;10458723;28;20079;-55
2021/03/06 22:35:21;;;;;;;2.28;1.30;;;17.60;55.30;;;;;;10483498;28;20040;-55
2021/03/06 22:40:21;;;;;;;1.50;0.82;;;17.60;55.30;;;;;;10492736;28;20032;-54
2021/03/06 22:45:22;;;;;;;1.52;1.10;;;17.60;55.30;;;;;;10458339;28;20163;-55
2021/03/06 22:50:23;;;;;;;1.17;0.73;;;17.60;55.20;;;;;;10463853;28;20060;-55
2021/03/06 22:55:24;;;;;;;3.33;1.00;;;17.60;55.20;;;;;;10457938;28;20029;-55
2021/03/06 23:00:34;;;;;;;1.58;0.98;;;17.60;55.10;;;;;;10496357;28;20037;-55
2021/03/06 23:05:35;;;;;;;2.65;1.25;;;17.60;55.10;;;;;;10497820;28;20029;-55
2021/03/06 23:10:39;;;;;;;1.73;1.00;;;17.70;55.00;;;;;;10457910;28;20441;-55
2021/03/06 23:15:46;;;;;;;1.80;1.05;;;17.70;54.90;;;;;;10486609;28;20476;-55
2021/03/06 23:20:47;;;;;;;2.90;1.17;;;17.70;54.90;;;;;;10496441;28;20043;-54
2021/03/06 23:25:48;;;;;;;1.90;1.20;;;17.70;54.80;;;;;;10472311;28;20351;-54
2021/03/06 23:30:49;;;;;;;2.00;1.13;;;17.70;54.80;;;;;;10456598;28;20025;-55
2021/03/06 23:35:50;;;;;;;2.38;1.20;;;17.70;54.70;;;;;;10480226;28;20086;-55
2021/03/06 23:40:50;;;;;;;1.17;0.77;;;17.70;54.70;;;;;;10481565;28;20086;-55
2021/03/06 23:45:51;;;;;;;1.92;1.02;;;17.70;54.60;;;;;;10458826;28;20037;-55
2021/03/06 23:50:52;;;;;;;1.70;1.08;;;17.70;54.60;;;;;;10503322;28;20051;-55
2021/03/06 23:55:53;;;;;;;1.75;0.98;;;17.70;54.70;;;;;;10483318;28;20054;-56
